createdAt,value
2017-10-12T00:00:51.189Z,12.30
2017-10-12T00:03:19.489Z,12.30
2017-10-12T00:05:48.038Z,12.30
2017-10-12T00:08:16.511Z,12.30
2017-10-12T00:10:44.806Z,12.30
2017-10-12T00:13:14.188Z,12.30
2017-10-12T00:15:42.566Z,12.30
2017-10-12T00:18:11.096Z,12.20
2017-10-12T00:20:39.638Z,12.20
2017-10-12T00:23:08.623Z,12.10
2017-10-12T00:25:37.174Z,12.10
2017-10-12T00:28:05.471Z,12.10
2017-10-12T00:30:33.796Z,12.10
2017-10-12T00:33:02.178Z,12.10
2017-10-12T00:35:31.336Z,12.10
2017-10-12T00:38:01.089Z,12.00
2017-10-12T00:40:29.494Z,12.00
2017-10-12T00:42:57.828Z,12.00
2017-10-12T00:45:26.118Z,12.00
2017-10-12T00:47:54.456Z,11.90
2017-10-12T00:50:22.752Z,11.90
2017-10-12T00:52:51.096Z,11.90
2017-10-12T00:55:19.444Z,11.90
2017-10-12T00:57:47.845Z,11.90
2017-10-12T01:00:16.194Z,11.90
2017-10-12T01:02:45.257Z,11.90
2017-10-12T01:05:13.628Z,11.90
2017-10-12T01:07:42.723Z,11.90
2017-10-12T01:10:11.110Z,11.90
2017-10-12T01:12:39.497Z,11.90
2017-10-12T01:15:07.857Z,11.90
2017-10-12T01:17:36.955Z,11.90
2017-10-12T01:20:06.131Z,11.90
2017-10-12T01:22:35.411Z,12.00
2017-10-12T01:25:06.490Z,12.00
2017-10-12T01:27:35.628Z,12.10
2017-10-12T01:30:04.035Z,12.00
2017-10-12T01:32:32.379Z,12.10
2017-10-12T01:35:01.533Z,12.10
2017-10-12T01:37:30.584Z,12.20
2017-10-12T01:40:04.680Z,12.10
2017-10-12T01:42:33.977Z,12.20
2017-10-12T01:45:02.319Z,12.20
2017-10-12T01:47:31.451Z,12.20
2017-10-12T01:50:05.623Z,12.20
2017-10-12T01:52:34.151Z,12.20
2017-10-12T01:55:02.530Z,12.20
2017-10-12T01:57:30.943Z,12.20
2017-10-12T01:59:59.256Z,12.10
2017-10-12T02:02:27.535Z,12.10
2017-10-12T02:04:55.865Z,12.10
2017-10-12T02:07:24.198Z,12.10
2017-10-12T02:09:53.423Z,12.00
2017-10-12T02:12:22.507Z,11.90
2017-10-12T02:14:50.911Z,11.90
2017-10-12T02:17:20.748Z,11.90
2017-10-12T02:19:49.079Z,11.90
2017-10-12T02:22:18.172Z,11.90
2017-10-12T02:24:47.703Z,11.90
2017-10-12T02:27:16.046Z,11.90
2017-10-12T02:29:44.388Z,11.90
2017-10-12T02:32:14.782Z,11.90
2017-10-12T02:34:43.144Z,11.90
2017-10-12T02:37:11.437Z,11.90
2017-10-12T02:39:40.705Z,11.90
2017-10-12T02:42:09.809Z,11.80
2017-10-12T02:44:38.103Z,11.80
2017-10-12T02:47:06.428Z,11.70
2017-10-12T02:49:34.735Z,11.70
2017-10-12T02:52:03.045Z,11.70
2017-10-12T02:54:31.415Z,11.60
2017-10-12T02:56:59.766Z,11.60
2017-10-12T02:59:28.063Z,11.60
2017-10-12T03:01:56.536Z,11.60
2017-10-12T03:04:25.692Z,11.70
2017-10-12T03:06:54.036Z,11.70
2017-10-12T03:09:23.136Z,11.80
2017-10-12T03:11:51.467Z,11.80
2017-10-12T03:14:19.825Z,11.80
2017-10-12T03:16:48.167Z,11.80
2017-10-12T03:19:17.264Z,11.90
2017-10-12T03:21:45.564Z,11.80
2017-10-12T03:24:13.852Z,11.90
2017-10-12T03:26:42.171Z,11.90
2017-10-12T03:29:10.598Z,11.90
2017-10-12T03:31:38.957Z,12.00
2017-10-12T03:34:07.289Z,12.00
2017-10-12T03:36:38.174Z,12.00
2017-10-12T03:39:10.247Z,12.00
2017-10-12T03:41:38.610Z,12.10
2017-10-12T03:44:09.217Z,12.10
2017-10-12T03:46:38.513Z,12.10
2017-10-12T03:49:09.204Z,12.10
2017-10-12T03:51:38.712Z,12.10
2017-10-12T03:54:09.731Z,12.20
2017-10-12T03:56:38.511Z,12.20
2017-10-12T03:59:08.528Z,12.20
2017-10-12T04:01:37.590Z,12.20
2017-10-12T04:04:05.917Z,12.20
2017-10-12T04:06:34.241Z,12.20
2017-10-12T04:09:03.773Z,12.20
2017-10-12T04:11:32.879Z,12.20
2017-10-12T04:14:01.417Z,12.20
2017-10-12T04:16:29.779Z,12.20
2017-10-12T04:19:00.865Z,12.10
2017-10-12T04:21:29.176Z,12.20
2017-10-12T04:23:57.586Z,12.20
2017-10-12T04:26:25.959Z,12.20
2017-10-12T04:28:54.264Z,12.20
2017-10-12T04:31:22.562Z,12.10
2017-10-12T04:33:50.892Z,12.10
2017-10-12T04:36:19.207Z,12.10
2017-10-12T04:38:47.574Z,12.10
2017-10-12T04:41:17.399Z,12.10
2017-10-12T04:43:45.710Z,12.10
2017-10-12T04:46:14.058Z,12.00
2017-10-12T04:48:42.383Z,12.00
2017-10-12T04:51:10.689Z,12.00
2017-10-12T04:53:38.977Z,12.00
2017-10-12T04:56:07.427Z,12.00
2017-10-12T04:58:36.488Z,11.80
2017-10-12T05:01:04.872Z,11.80
2017-10-12T05:03:34.722Z,11.80
2017-10-12T05:06:03.092Z,11.80
2017-10-12T05:08:31.434Z,11.70
2017-10-12T05:11:01.297Z,11.80
2017-10-12T05:13:32.784Z,11.80
2017-10-12T05:16:01.138Z,11.80
2017-10-12T05:18:30.399Z,11.80
2017-10-12T05:20:58.705Z,11.80
2017-10-12T05:23:31.024Z,11.80
2017-10-12T05:25:59.358Z,11.90
2017-10-12T05:28:27.870Z,11.80
2017-10-12T05:30:57.027Z,11.90
2017-10-12T05:33:25.385Z,11.90
2017-10-12T05:35:53.695Z,11.90
2017-10-12T05:38:24.184Z,11.90
2017-10-12T05:40:53.946Z,11.80
2017-10-12T05:43:22.382Z,11.80
2017-10-12T05:45:52.472Z,11.90
2017-10-12T05:48:20.813Z,11.90
2017-10-12T05:50:49.912Z,11.90
2017-10-12T05:53:20.419Z,11.90
2017-10-12T05:55:48.818Z,11.90
2017-10-12T05:58:17.167Z,11.90
2017-10-12T06:00:45.553Z,11.80
2017-10-12T06:03:14.650Z,11.80
2017-10-12T06:05:43.800Z,11.80
2017-10-12T06:08:13.100Z,11.80
2017-10-12T06:10:41.432Z,11.80
2017-10-12T06:13:09.809Z,11.80
2017-10-12T06:15:40.288Z,11.70
2017-10-12T06:18:09.277Z,11.70
2017-10-12T06:20:39.013Z,11.70
2017-10-12T06:23:20.055Z,11.80
2017-10-12T06:25:54.842Z,11.90
2017-10-12T06:28:24.261Z,11.80
2017-10-12T06:30:53.257Z,11.90
2017-10-12T06:33:21.609Z,12.10
2017-10-12T06:35:55.417Z,12.20
2017-10-12T06:38:24.585Z,12.40
2017-10-12T06:40:53.909Z,12.50
2017-10-12T06:43:25.370Z,12.60
2017-10-12T06:45:54.468Z,12.80
2017-10-12T06:48:24.454Z,12.90
2017-10-12T06:50:52.736Z,12.90
2017-10-12T06:53:21.028Z,13.00
2017-10-12T06:55:49.380Z,13.00
2017-10-12T06:58:18.794Z,12.90
2017-10-12T07:00:47.775Z,12.90
2017-10-12T07:03:28.053Z,12.90
2017-10-12T07:05:57.420Z,12.90
2017-10-12T07:08:26.975Z,13.00
2017-10-12T07:10:56.401Z,13.00
2017-10-12T07:13:26.750Z,12.90
2017-10-12T07:15:55.938Z,12.90
2017-10-12T07:18:25.364Z,12.90
2017-10-12T07:20:53.693Z,12.90
2017-10-12T07:23:22.026Z,13.30
2017-10-12T07:25:51.154Z,14.10
2017-10-12T07:28:19.452Z,14.00
2017-10-12T07:30:48.503Z,14.70
2017-10-12T07:33:16.846Z,14.70
2017-10-12T07:35:45.171Z,14.80
2017-10-12T07:38:13.479Z,14.60
2017-10-12T07:40:41.979Z,14.50
2017-10-12T07:43:10.293Z,14.90
2017-10-12T07:45:38.647Z,15.50
2017-10-12T07:48:07.764Z,16.50
2017-10-12T07:50:37.859Z,16.50
2017-10-12T07:53:07.022Z,17.10
2017-10-12T07:55:35.394Z,17.20
2017-10-12T07:58:03.715Z,17.10
2017-10-12T08:00:32.107Z,17.10
2017-10-12T08:03:00.517Z,17.10
2017-10-12T08:05:28.830Z,17.30
2017-10-12T08:07:58.050Z,17.70
2017-10-12T08:10:26.417Z,17.50
2017-10-12T08:12:56.168Z,17.30
2017-10-12T08:15:25.323Z,17.30
2017-10-12T08:17:59.405Z,17.60
2017-10-12T08:20:28.303Z,17.90
2017-10-12T08:22:57.395Z,18.10
2017-10-12T08:25:27.439Z,18.20
2017-10-12T08:27:56.760Z,18.20
2017-10-12T08:30:28.787Z,18.60
2017-10-12T08:33:00.577Z,18.40
2017-10-12T08:35:29.843Z,18.60
2017-10-12T08:37:58.924Z,18.50
2017-10-12T08:40:28.294Z,18.60
2017-10-12T08:42:56.670Z,18.40
2017-10-12T08:45:25.771Z,18.60
2017-10-12T08:47:55.599Z,18.60
2017-10-12T08:50:25.002Z,18.70
2017-10-12T08:52:54.391Z,19.20
2017-10-12T08:55:30.100Z,19.20
2017-10-12T08:58:02.129Z,19.30
2017-10-12T09:00:46.904Z,19.30
2017-10-12T09:05:56.143Z,19.70
2017-10-12T09:08:24.945Z,19.90
2017-10-12T09:10:53.681Z,20.30
2017-10-12T09:13:22.003Z,20.00
2017-10-12T09:15:51.722Z,19.70
2017-10-12T09:18:20.044Z,19.20
2017-10-12T09:20:48.591Z,18.90
2017-10-12T09:23:17.623Z,19.00
2017-10-12T09:25:46.011Z,19.30
2017-10-12T09:28:18.159Z,19.50
2017-10-12T09:30:46.515Z,19.60
2017-10-12T09:33:15.779Z,19.40
2017-10-12T09:35:44.682Z,19.20
2017-10-12T09:38:14.930Z,18.70
2017-10-12T09:40:44.339Z,18.50
2017-10-12T09:43:13.550Z,18.40
2017-10-12T09:45:45.089Z,18.40
2017-10-12T09:48:21.288Z,18.10
2017-10-12T09:50:53.698Z,18.00
2017-10-12T09:53:22.407Z,18.30
2017-10-12T09:56:17.448Z,18.60
2017-10-12T09:58:58.116Z,18.90
2017-10-12T10:01:28.832Z,19.70
2017-10-12T10:04:00.575Z,19.90
2017-10-12T10:06:28.920Z,19.90
2017-10-12T10:08:57.356Z,19.90
2017-10-12T10:11:25.753Z,19.80
2017-10-12T10:13:55.646Z,19.80
2017-10-12T10:16:25.283Z,21.00
2017-10-12T10:18:54.646Z,21.00
2017-10-12T10:21:32.614Z,21.20
2017-10-12T10:24:03.679Z,21.40
2017-10-12T10:26:32.056Z,21.50
2017-10-12T10:29:00.388Z,21.30
2017-10-12T10:31:28.749Z,21.10
2017-10-12T10:33:58.205Z,21.40
2017-10-12T10:36:27.181Z,21.50
2017-10-12T10:38:57.374Z,21.60
2017-10-12T10:41:25.743Z,21.60
2017-10-12T10:43:54.067Z,21.30
2017-10-12T10:46:22.510Z,21.20
2017-10-12T10:48:51.635Z,21.50
2017-10-12T10:51:21.025Z,21.40
2017-10-12T10:53:50.323Z,21.20
2017-10-12T10:56:18.841Z,20.70
2017-10-12T10:58:47.503Z,20.70
2017-10-12T11:01:16.635Z,20.50
2017-10-12T11:03:46.542Z,20.10
2017-10-12T11:06:15.719Z,20.10
2017-10-12T11:08:56.272Z,20.20
2017-10-12T11:11:27.313Z,20.40
2017-10-12T11:13:59.760Z,20.80
2017-10-12T11:16:42.490Z,21.00
2017-10-12T11:21:48.324Z,20.80
2017-10-12T11:24:24.919Z,20.90
2017-10-12T11:26:55.261Z,20.80
2017-10-12T11:29:26.268Z,20.80
2017-10-12T11:31:55.628Z,20.80
2017-10-12T11:34:24.756Z,20.60
2017-10-12T11:36:53.088Z,20.60
2017-10-12T11:39:21.443Z,20.30
2017-10-12T11:41:50.568Z,20.10
2017-10-12T11:44:20.581Z,19.90
2017-10-12T11:46:50.554Z,19.90
2017-10-12T11:49:19.772Z,19.70
2017-10-12T11:51:49.519Z,19.50
2017-10-12T11:54:19.752Z,19.40
2017-10-12T11:56:50.246Z,19.40
2017-10-12T11:59:21.157Z,19.40
2017-10-12T12:01:49.470Z,19.40
2017-10-12T12:04:17.767Z,19.30
2017-10-12T12:06:46.103Z,19.10
2017-10-12T12:09:14.451Z,19.20
2017-10-12T12:11:42.754Z,19.30
2017-10-12T12:14:11.901Z,19.50
2017-10-12T12:16:41.364Z,19.20
2017-10-12T12:19:11.680Z,19.30
2017-10-12T12:21:40.756Z,19.10
2017-10-12T12:24:10.403Z,19.10
2017-10-12T12:26:39.793Z,19.00
2017-10-12T12:29:11.639Z,18.80
2017-10-12T12:31:44.992Z,19.00
2017-10-12T12:34:13.319Z,19.10
2017-10-12T12:36:41.631Z,19.20
2017-10-12T12:39:10.049Z,19.30
2017-10-12T12:41:38.367Z,19.50
2017-10-12T12:44:06.677Z,19.60
2017-10-12T12:46:34.995Z,19.60
2017-10-12T12:49:03.340Z,19.70
2017-10-12T12:51:31.695Z,19.50
2017-10-12T12:54:00.005Z,19.30
2017-10-12T12:56:28.312Z,19.30
2017-10-12T12:58:57.407Z,19.20
2017-10-12T13:01:25.893Z,19.20
2017-10-12T13:03:54.281Z,19.10
2017-10-12T13:06:24.456Z,18.80
2017-10-12T13:08:52.753Z,18.70
2017-10-12T13:11:21.064Z,18.80
2017-10-12T13:13:53.159Z,18.60
2017-10-12T13:16:21.501Z,18.70
2017-10-12T13:18:50.695Z,18.90
2017-10-12T13:21:19.995Z,18.90
2017-10-12T13:23:48.333Z,19.00
2017-10-12T13:26:16.634Z,18.90
2017-10-12T13:28:45.691Z,19.00
2017-10-12T13:31:14.011Z,19.00
2017-10-12T13:33:43.269Z,19.10
2017-10-12T13:36:11.556Z,19.10
2017-10-12T13:38:39.884Z,19.10
2017-10-12T13:41:08.749Z,19.10
2017-10-12T13:43:37.100Z,19.10
2017-10-12T13:46:06.159Z,19.10
2017-10-12T13:48:34.528Z,19.20
2017-10-12T13:51:09.691Z,19.20
2017-10-12T13:53:41.815Z,19.40
2017-10-12T13:56:13.159Z,19.20
2017-10-12T13:58:43.753Z,19.20
2017-10-12T14:01:17.270Z,19.10
2017-10-12T14:03:53.028Z,19.10
2017-10-12T14:06:27.540Z,19.10
2017-10-12T14:08:56.180Z,19.10
2017-10-12T14:11:25.678Z,19.00
2017-10-12T14:13:58.397Z,18.90
2017-10-12T14:16:27.426Z,19.00
2017-10-12T14:18:56.538Z,19.00
2017-10-12T14:21:29.308Z,19.00
2017-10-12T14:24:02.220Z,18.90
2017-10-12T14:26:30.546Z,18.80
2017-10-12T14:28:59.758Z,18.80
2017-10-12T14:31:32.575Z,19.00
2017-10-12T14:34:10.099Z,19.00
2017-10-12T14:36:40.082Z,19.00
2017-10-12T14:39:09.931Z,18.80
2017-10-12T14:41:41.455Z,18.80
2017-10-12T14:44:10.931Z,18.80
2017-10-12T14:46:40.875Z,18.80
2017-10-12T14:49:11.137Z,18.70
2017-10-12T14:51:40.381Z,18.70
2017-10-12T14:54:08.689Z,18.70
2017-10-12T14:56:36.990Z,18.70
2017-10-12T14:59:05.346Z,18.70
2017-10-12T15:01:33.683Z,18.80
2017-10-12T15:04:04.596Z,18.60
2017-10-12T15:06:33.014Z,18.60
2017-10-12T15:09:02.042Z,18.60
2017-10-12T15:11:32.178Z,18.50
2017-10-12T15:14:06.684Z,18.50
2017-10-12T15:16:48.700Z,18.50
2017-10-12T15:19:20.523Z,18.40
2017-10-12T15:21:50.958Z,18.40
2017-10-12T15:24:19.462Z,18.40
2017-10-12T15:26:48.055Z,18.30
2017-10-12T15:29:16.909Z,18.20
2017-10-12T15:31:48.442Z,18.10
2017-10-12T15:34:18.832Z,18.10
2017-10-12T15:36:48.774Z,18.00
2017-10-12T15:39:17.893Z,18.00
2017-10-12T15:41:47.049Z,18.00
2017-10-12T15:44:16.468Z,18.00
2017-10-12T15:46:44.790Z,17.90
2017-10-12T15:49:14.090Z,17.80
2017-10-12T15:51:45.755Z,17.80
2017-10-12T15:54:15.871Z,17.70
2017-10-12T15:56:45.756Z,17.70
2017-10-12T15:59:15.636Z,17.70
2017-10-12T16:01:44.539Z,17.60
2017-10-12T16:04:14.274Z,17.60
2017-10-12T16:06:41.799Z,17.60
2017-10-12T16:09:10.080Z,17.60
2017-10-12T16:11:38.406Z,17.50
2017-10-12T16:14:06.716Z,17.50
2017-10-12T16:16:35.378Z,17.40
2017-10-12T16:19:03.698Z,17.40
2017-10-12T16:21:32.865Z,17.30
2017-10-12T16:24:02.219Z,17.30
2017-10-12T16:26:30.535Z,17.20
2017-10-12T16:28:58.851Z,17.20
2017-10-12T16:31:30.086Z,17.10
2017-10-12T16:33:59.792Z,17.10
2017-10-12T16:36:29.815Z,17.10
2017-10-12T16:38:58.166Z,17.00
2017-10-12T16:41:32.935Z,16.90
2017-10-12T16:44:03.169Z,16.90
2017-10-12T16:46:31.498Z,16.80
2017-10-12T16:48:59.912Z,16.80
2017-10-12T16:51:29.023Z,16.80
2017-10-12T16:53:58.001Z,16.70
2017-10-12T16:56:26.421Z,16.70
2017-10-12T16:58:55.102Z,16.70
2017-10-12T17:01:24.587Z,16.70
2017-10-12T17:03:53.568Z,16.70
2017-10-12T17:06:21.887Z,16.60
2017-10-12T17:08:50.973Z,16.60
2017-10-12T17:11:20.096Z,16.60
2017-10-12T17:13:50.449Z,16.50
2017-10-12T17:16:24.257Z,16.50
2017-10-12T17:18:56.943Z,16.50
2017-10-12T17:21:25.329Z,16.50
2017-10-12T17:23:53.654Z,16.50
2017-10-12T17:26:22.087Z,16.40
2017-10-12T17:29:04.309Z,16.40
2017-10-12T17:34:25.749Z,16.30
2017-10-12T17:36:54.849Z,16.30
2017-10-12T17:39:23.174Z,16.20
2017-10-12T17:41:52.237Z,16.20
2017-10-12T17:44:20.594Z,16.10
2017-10-12T17:46:49.664Z,16.10
2017-10-12T17:49:17.986Z,16.10
2017-10-12T17:51:46.333Z,16.00
2017-10-12T17:54:45.280Z,15.80
2017-10-12T17:56:43.793Z,15.80
2017-10-12T17:59:12.138Z,15.80
2017-10-12T18:01:40.456Z,15.70
2017-10-12T18:04:08.805Z,15.70
2017-10-12T18:06:37.880Z,15.50
2017-10-12T18:09:06.254Z,15.50
2017-10-12T18:11:34.606Z,15.50
2017-10-12T18:14:02.950Z,15.40
2017-10-12T18:16:31.269Z,15.40
2017-10-12T18:18:59.614Z,15.30
2017-10-12T18:21:28.306Z,15.20
2017-10-12T18:23:56.655Z,15.20
2017-10-12T18:26:25.811Z,15.10
2017-10-12T18:28:54.169Z,15.10
2017-10-12T18:31:22.629Z,15.20
2017-10-12T18:33:50.994Z,15.10
2017-10-12T18:36:19.870Z,15.10
2017-10-12T18:38:48.179Z,15.20
2017-10-12T18:41:16.493Z,15.20
2017-10-12T18:43:45.549Z,15.20
2017-10-12T18:46:14.692Z,15.20
2017-10-12T18:48:42.989Z,15.10
2017-10-12T18:51:11.282Z,15.10
2017-10-12T18:53:39.626Z,15.10
2017-10-12T18:56:07.949Z,15.10
2017-10-12T18:58:36.283Z,15.10
2017-10-12T19:01:04.590Z,15.00
2017-10-12T19:03:33.709Z,14.90
2017-10-12T19:06:02.854Z,14.90
2017-10-12T19:08:31.163Z,14.90
2017-10-12T19:10:59.538Z,14.90
2017-10-12T19:13:28.593Z,14.80
2017-10-12T19:15:56.958Z,14.80
2017-10-12T19:18:26.084Z,14.80
2017-10-12T19:20:54.488Z,14.80
2017-10-12T19:23:22.835Z,14.70
2017-10-12T19:25:51.164Z,14.70
2017-10-12T19:30:47.950Z,14.60
2017-10-12T19:33:16.247Z,14.50
2017-10-12T19:35:44.624Z,14.50
2017-10-12T19:38:12.958Z,14.40
2017-10-12T19:40:41.300Z,14.40
2017-10-12T19:43:10.399Z,14.30
2017-10-12T19:45:38.758Z,14.30
2017-10-12T19:48:07.057Z,14.30
2017-10-12T19:50:35.443Z,14.30
2017-10-12T19:53:04.535Z,14.20
2017-10-12T19:55:32.871Z,14.20
2017-10-12T19:58:01.198Z,14.20
2017-10-12T20:00:29.570Z,14.20
2017-10-12T20:02:58.703Z,14.20
2017-10-12T20:05:27.006Z,14.20
2017-10-12T20:07:56.085Z,14.20
2017-10-12T20:10:24.426Z,14.20
2017-10-12T20:12:53.510Z,14.20
2017-10-12T20:15:21.864Z,14.20
2017-10-12T20:17:50.196Z,14.20
2017-10-12T20:20:18.506Z,14.20
2017-10-12T20:22:46.852Z,14.10
2017-10-12T20:25:16.154Z,14.00
2017-10-12T20:27:44.533Z,14.00
2017-10-12T20:30:12.837Z,13.90
2017-10-12T20:32:41.166Z,13.80
2017-10-12T20:35:10.255Z,13.80
2017-10-12T20:37:38.554Z,13.70
2017-10-12T20:40:06.899Z,13.80
2017-10-12T20:42:35.274Z,13.70
2017-10-12T20:45:03.593Z,13.70
2017-10-12T20:47:31.889Z,13.60
2017-10-12T20:50:00.216Z,13.50
2017-10-12T20:52:28.529Z,13.50
2017-10-12T20:55:11.814Z,13.40
2017-10-12T20:57:25.214Z,13.30
2017-10-12T20:59:53.511Z,13.30
2017-10-12T21:02:51.208Z,13.30
2017-10-12T21:04:50.188Z,13.30
2017-10-12T21:07:18.906Z,13.30
2017-10-12T21:09:47.246Z,13.20
2017-10-12T21:12:15.861Z,13.20
2017-10-12T21:14:44.607Z,13.20
2017-10-12T21:17:14.378Z,13.10
2017-10-12T21:19:42.673Z,13.10
2017-10-12T21:22:11.774Z,13.00
2017-10-12T21:24:40.085Z,13.00
2017-10-12T21:27:08.383Z,13.10
2017-10-12T21:29:36.716Z,13.00
2017-10-12T21:32:05.074Z,13.00
2017-10-12T21:34:33.369Z,13.00
2017-10-12T21:37:01.714Z,12.90
2017-10-12T21:39:31.135Z,12.80
2017-10-12T21:41:59.475Z,12.80
2017-10-12T21:44:27.773Z,12.80
2017-10-12T21:46:57.135Z,12.70
2017-10-12T21:49:31.063Z,12.70
2017-10-12T21:52:00.384Z,12.70
2017-10-12T21:54:28.781Z,12.60
2017-10-12T21:56:58.595Z,12.60
2017-10-12T21:59:28.894Z,12.60
2017-10-12T22:01:57.200Z,12.70
2017-10-12T22:04:25.582Z,12.70
2017-10-12T22:06:54.664Z,12.70
2017-10-12T22:09:24.675Z,12.60
2017-10-12T22:11:56.722Z,12.70
2017-10-12T22:14:32.538Z,12.60
2017-10-12T22:17:03.518Z,12.70
2017-10-12T22:19:33.548Z,12.70
2017-10-12T22:22:01.928Z,12.70
2017-10-12T22:24:30.301Z,12.70
2017-10-12T22:27:00.294Z,12.70
2017-10-12T22:29:49.507Z,12.70
2017-10-12T22:32:23.256Z,12.70
2017-10-12T22:34:53.105Z,12.70
2017-10-12T22:37:25.135Z,12.60
2017-10-12T22:39:54.219Z,12.50
2017-10-12T22:42:22.508Z,12.60
2017-10-12T22:44:52.758Z,12.60
2017-10-12T22:47:21.079Z,12.60
2017-10-12T22:49:49.393Z,12.50
2017-10-12T22:52:18.531Z,12.50
2017-10-12T22:54:47.789Z,12.50
2017-10-12T22:57:17.520Z,12.50
2017-10-12T22:59:51.520Z,12.40
2017-10-12T23:02:29.803Z,12.40
2017-10-12T23:04:58.905Z,12.40
2017-10-12T23:07:27.265Z,12.40
2017-10-12T23:09:55.604Z,12.30
2017-10-12T23:12:28.935Z,12.30
2017-10-12T23:14:58.350Z,12.30
2017-10-12T23:17:33.768Z,12.20
2017-10-12T23:20:02.183Z,12.20
2017-10-12T23:28:00.875Z,12.10
2017-10-12T23:30:29.167Z,12.10
2017-10-12T23:32:57.452Z,12.10
2017-10-12T23:35:25.776Z,12.10
2017-10-12T23:37:54.072Z,12.20
2017-10-12T23:40:22.393Z,12.20
2017-10-12T23:42:50.718Z,12.20
2017-10-12T23:45:19.063Z,12.20
2017-10-12T23:47:48.150Z,12.20
2017-10-12T23:50:17.386Z,12.20
2017-10-12T23:52:45.726Z,12.20
2017-10-12T23:55:14.057Z,12.20
2017-10-12T23:57:42.347Z,12.20
